createdAt,value
2019-01-15T00:02:09.328Z,4.30
2019-01-15T00:04:40.617Z,4.30
2019-01-15T00:07:11.497Z,4.40
2019-01-15T00:09:42.310Z,4.30
2019-01-15T00:12:13.237Z,4.30
2019-01-15T00:14:43.842Z,4.30
2019-01-15T00:17:14.521Z,4.20
2019-01-15T00:19:45.409Z,4.20
2019-01-15T00:22:17.294Z,4.20
2019-01-15T00:24:47.600Z,4.20
2019-01-15T00:27:18.188Z,4.10
2019-01-15T00:29:49.289Z,4.10
2019-01-15T00:32:20.181Z,4.10
2019-01-15T00:34:50.762Z,4.10
2019-01-15T00:37:21.351Z,4.00
2019-01-15T00:39:52.274Z,4.00
2019-01-15T00:42:23.382Z,3.90
2019-01-15T00:44:54.251Z,3.90
2019-01-15T00:47:25.221Z,3.90
2019-01-15T00:49:56.101Z,3.90
2019-01-15T00:52:26.764Z,3.80
2019-01-15T00:54:57.175Z,3.80
2019-01-15T00:57:27.695Z,3.80
2019-01-15T00:59:58.243Z,3.80
2019-01-15T01:02:29.190Z,3.80
2019-01-15T01:05:00.354Z,3.80
2019-01-15T01:07:30.915Z,3.80
2019-01-15T01:10:01.178Z,3.80
2019-01-15T01:12:31.847Z,3.70
2019-01-15T01:15:02.713Z,3.70
2019-01-15T01:17:34.061Z,3.70
2019-01-15T01:20:05.929Z,3.70
2019-01-15T01:22:36.547Z,3.70
2019-01-15T01:25:08.053Z,3.70
2019-01-15T01:27:38.898Z,3.60
2019-01-15T01:30:21.802Z,3.60
2019-01-15T01:32:52.887Z,3.60
2019-01-15T01:35:23.757Z,3.60
2019-01-15T01:37:54.930Z,3.50
2019-01-15T01:40:25.415Z,3.50
2019-01-15T01:42:56.599Z,3.40
2019-01-15T01:45:26.795Z,3.40
2019-01-15T01:47:58.006Z,3.30
2019-01-15T01:50:28.216Z,3.30
2019-01-15T01:52:59.466Z,3.30
2019-01-15T01:55:30.326Z,3.30
2019-01-15T01:58:00.624Z,3.20
2019-01-15T02:00:31.821Z,3.20
2019-01-15T02:03:02.995Z,3.30
2019-01-15T02:05:33.861Z,3.30
2019-01-15T02:08:04.716Z,3.30
2019-01-15T02:10:35.827Z,3.30
2019-01-15T02:13:06.791Z,3.20
2019-01-15T02:15:37.654Z,3.20
2019-01-15T02:18:07.991Z,3.20
2019-01-15T02:20:39.185Z,3.20
2019-01-15T02:23:10.103Z,3.20
2019-01-15T02:25:40.381Z,3.20
2019-01-15T02:28:12.202Z,3.20
2019-01-15T02:30:42.726Z,3.20
2019-01-15T02:33:13.921Z,3.20
2019-01-15T02:35:44.962Z,3.20
2019-01-15T02:38:15.183Z,3.10
2019-01-15T02:40:46.053Z,3.10
2019-01-15T02:43:16.932Z,3.10
2019-01-15T02:45:48.130Z,3.10
2019-01-15T02:48:18.975Z,3.10
2019-01-15T02:50:50.132Z,3.20
2019-01-15T02:53:20.771Z,3.20
2019-01-15T02:55:51.981Z,3.30
2019-01-15T02:58:22.288Z,3.40
2019-01-15T03:00:52.882Z,3.40
2019-01-15T03:03:23.259Z,3.50
2019-01-15T03:05:54.107Z,3.50
2019-01-15T03:08:24.639Z,3.50
2019-01-15T03:10:55.402Z,3.50
2019-01-15T03:13:26.693Z,3.50
2019-01-15T03:15:57.210Z,3.50
2019-01-15T03:18:27.465Z,3.40
2019-01-15T03:20:58.317Z,3.40
2019-01-15T03:23:28.958Z,3.30
2019-01-15T03:25:59.237Z,3.30
2019-01-15T03:28:29.877Z,3.30
2019-01-15T03:31:00.757Z,3.30
2019-01-15T03:33:31.039Z,3.30
2019-01-15T03:36:01.003Z,3.30
2019-01-15T03:38:33.122Z,3.30
2019-01-15T03:41:04.212Z,3.30
2019-01-15T03:43:34.810Z,3.40
2019-01-15T03:46:05.687Z,3.40
2019-01-15T03:48:36.882Z,3.40
2019-01-15T03:51:07.786Z,3.40
2019-01-15T03:53:38.347Z,3.40
2019-01-15T03:56:08.871Z,3.50
2019-01-15T03:58:39.376Z,3.50
2019-01-15T04:01:10.283Z,3.50
2019-01-15T04:03:40.938Z,3.50
2019-01-15T04:06:11.398Z,3.60
2019-01-15T04:08:41.872Z,3.60
2019-01-15T04:11:12.634Z,3.60
2019-01-15T04:13:43.764Z,3.60
2019-01-15T04:16:14.956Z,3.70
2019-01-15T04:18:45.877Z,3.60
2019-01-15T04:21:17.195Z,3.70
2019-01-15T04:23:48.117Z,3.70
2019-01-15T04:26:19.098Z,3.70
2019-01-15T04:28:49.990Z,3.70
2019-01-15T04:31:21.273Z,3.60
2019-01-15T04:33:52.489Z,3.60
2019-01-15T04:36:23.124Z,3.60
2019-01-15T04:38:53.919Z,3.50
2019-01-15T04:41:24.839Z,3.40
2019-01-15T04:43:55.477Z,3.40
2019-01-15T04:46:26.743Z,3.40
2019-01-15T04:48:57.560Z,3.40
2019-01-15T04:51:28.445Z,3.40
2019-01-15T04:53:59.649Z,3.50
2019-01-15T04:56:31.735Z,3.50
2019-01-15T04:59:02.699Z,3.50
2019-01-15T05:01:34.259Z,3.60
2019-01-15T05:04:05.114Z,3.60
2019-01-15T05:06:35.962Z,3.60
2019-01-15T05:09:08.877Z,3.60
2019-01-15T05:11:39.455Z,3.60
2019-01-15T05:14:10.078Z,3.50
2019-01-15T05:16:40.967Z,3.50
2019-01-15T05:19:11.919Z,3.50
2019-01-15T05:21:42.901Z,3.50
2019-01-15T05:24:13.483Z,3.50
2019-01-15T05:26:44.327Z,3.50
2019-01-15T05:29:15.555Z,3.50
2019-01-15T05:31:46.495Z,3.60
2019-01-15T05:34:17.154Z,3.60
2019-01-15T05:36:48.336Z,3.70
2019-01-15T05:39:18.241Z,3.70
2019-01-15T05:41:49.145Z,3.60
2019-01-15T05:44:19.408Z,3.60
2019-01-15T05:46:50.141Z,3.60
2019-01-15T05:49:20.971Z,3.50
2019-01-15T05:51:52.147Z,3.60
2019-01-15T05:54:23.005Z,3.60
2019-01-15T05:56:54.171Z,3.50
2019-01-15T05:59:24.795Z,3.50
2019-01-15T06:01:56.022Z,3.50
2019-01-15T06:04:26.617Z,3.50
2019-01-15T06:06:57.715Z,3.40
2019-01-15T06:09:28.599Z,3.40
2019-01-15T06:11:59.467Z,3.40
2019-01-15T06:14:30.643Z,3.40
2019-01-15T06:17:01.475Z,3.40
2019-01-15T06:19:31.972Z,3.40
2019-01-15T06:22:02.857Z,3.40
2019-01-15T06:24:34.087Z,3.40
2019-01-15T06:27:05.065Z,3.30
2019-01-15T06:29:35.868Z,3.30
2019-01-15T06:32:06.192Z,3.30
2019-01-15T06:34:37.142Z,3.30
2019-01-15T06:37:08.048Z,3.30
2019-01-15T06:39:39.246Z,3.30
2019-01-15T06:42:09.845Z,3.40
2019-01-15T06:44:40.798Z,3.50
2019-01-15T06:47:11.730Z,3.50
2019-01-15T06:49:42.406Z,3.50
2019-01-15T06:52:36.262Z,3.50
2019-01-15T06:55:12.032Z,3.50
2019-01-15T06:57:45.140Z,3.50
2019-01-15T07:00:29.090Z,3.50
2019-01-15T07:03:02.148Z,3.40
2019-01-15T07:05:32.564Z,3.50
2019-01-15T07:08:03.518Z,3.60
2019-01-15T07:10:38.680Z,3.50
2019-01-15T07:13:09.737Z,3.60
2019-01-15T07:15:41.318Z,3.60
2019-01-15T07:18:12.478Z,3.50
2019-01-15T07:20:43.288Z,3.50
2019-01-15T07:23:14.470Z,3.50
2019-01-15T07:25:45.654Z,3.50
2019-01-15T07:28:16.325Z,3.50
2019-01-15T07:30:49.580Z,3.50
2019-01-15T07:33:23.396Z,3.40
2019-01-15T07:35:53.934Z,3.40
2019-01-15T07:38:24.876Z,3.30
2019-01-15T07:40:56.444Z,3.30
2019-01-15T07:43:27.294Z,3.30
2019-01-15T07:45:58.455Z,3.20
2019-01-15T07:48:28.772Z,3.20
2019-01-15T07:50:59.680Z,3.20
2019-01-15T07:53:30.565Z,3.20
2019-01-15T07:56:01.484Z,3.30
2019-01-15T07:58:32.318Z,3.40
2019-01-15T08:01:02.988Z,3.50
2019-01-15T08:03:33.827Z,3.50
2019-01-15T08:06:04.142Z,3.50
2019-01-15T08:08:35.015Z,3.50
2019-01-15T08:11:05.706Z,3.60
2019-01-15T08:13:36.616Z,3.60
2019-01-15T08:16:07.795Z,3.70
2019-01-15T08:18:38.459Z,3.90
2019-01-15T08:21:09.095Z,4.10
2019-01-15T08:23:39.992Z,4.30
2019-01-15T08:26:11.156Z,4.40
2019-01-15T08:28:42.434Z,4.50
2019-01-15T08:31:12.844Z,4.50
2019-01-15T08:33:44.694Z,4.60
2019-01-15T08:36:14.980Z,4.60
2019-01-15T08:38:45.860Z,4.60
2019-01-15T08:41:16.418Z,4.60
2019-01-15T08:43:47.628Z,4.60
2019-01-15T08:46:18.163Z,4.60
2019-01-15T08:48:49.075Z,4.70
2019-01-15T08:51:20.257Z,4.70
2019-01-15T08:53:52.005Z,4.70
2019-01-15T08:56:22.820Z,4.80
2019-01-15T08:58:53.733Z,4.90
2019-01-15T09:01:24.641Z,5.00
2019-01-15T09:03:55.217Z,5.10
2019-01-15T09:06:26.477Z,5.10
2019-01-15T09:08:57.081Z,5.20
2019-01-15T09:11:39.491Z,5.20
2019-01-15T09:14:01.131Z,5.20
2019-01-15T09:16:32.109Z,5.30
2019-01-15T09:19:02.959Z,5.30
2019-01-15T09:21:33.658Z,5.30
2019-01-15T09:24:04.215Z,5.30
2019-01-15T09:26:35.464Z,5.30
2019-01-15T09:29:06.013Z,5.30
2019-01-15T09:31:36.383Z,5.20
2019-01-15T09:34:07.627Z,5.10
2019-01-15T09:36:38.187Z,5.10
2019-01-15T09:39:09.511Z,5.10
2019-01-15T09:41:40.808Z,5.10
2019-01-15T09:44:11.681Z,5.10
2019-01-15T09:46:42.613Z,5.20
2019-01-15T09:49:13.747Z,5.20
2019-01-15T09:51:44.629Z,5.20
2019-01-15T09:54:15.905Z,5.30
2019-01-15T09:56:47.134Z,5.30
2019-01-15T09:59:18.263Z,5.40
2019-01-15T10:01:49.161Z,5.50
2019-01-15T10:04:20.315Z,5.60
2019-01-15T10:06:51.219Z,5.60
2019-01-15T10:09:22.061Z,5.70
2019-01-15T10:11:52.816Z,5.80
2019-01-15T10:14:23.999Z,5.90
2019-01-15T10:16:55.343Z,6.00
2019-01-15T10:19:26.333Z,6.10
2019-01-15T10:21:56.937Z,6.20
2019-01-15T10:24:27.226Z,6.20
2019-01-15T10:26:58.250Z,6.20
2019-01-15T10:29:29.863Z,6.40
2019-01-15T10:32:55.402Z,6.50
2019-01-15T10:35:56.365Z,6.80
2019-01-15T10:38:28.188Z,7.30
2019-01-15T10:40:59.429Z,7.90
2019-01-15T10:43:31.670Z,7.90
2019-01-15T10:46:04.387Z,7.70
2019-01-15T10:48:35.320Z,7.40
2019-01-15T10:51:06.099Z,7.40
2019-01-15T10:53:36.391Z,7.30
2019-01-15T10:56:07.260Z,7.30
2019-01-15T10:58:38.444Z,7.40
2019-01-15T11:01:09.352Z,7.40
2019-01-15T11:03:40.356Z,7.50
2019-01-15T11:06:11.562Z,7.40
2019-01-15T11:08:41.800Z,7.60
2019-01-15T11:11:14.160Z,8.10
2019-01-15T11:13:45.290Z,8.40
2019-01-15T11:16:15.936Z,8.80
2019-01-15T11:18:47.143Z,9.20
2019-01-15T11:21:17.893Z,9.50
2019-01-15T11:23:48.342Z,9.50
2019-01-15T11:26:19.565Z,9.30
2019-01-15T11:28:49.812Z,9.20
2019-01-15T11:31:20.464Z,9.50
2019-01-15T11:33:52.419Z,9.80
2019-01-15T11:36:23.378Z,10.40
2019-01-15T11:38:53.927Z,10.50
2019-01-15T11:41:24.528Z,10.50
2019-01-15T11:43:55.132Z,10.40
2019-01-15T11:46:25.932Z,10.30
2019-01-15T11:48:56.468Z,10.10
2019-01-15T11:51:27.682Z,9.70
2019-01-15T11:53:57.634Z,9.40
2019-01-15T11:56:28.472Z,9.10
2019-01-15T11:58:59.820Z,8.70
2019-01-15T12:01:47.030Z,8.50
2019-01-15T12:04:35.015Z,8.40
2019-01-15T12:07:23.220Z,8.20
2019-01-15T12:10:15.385Z,8.00
2019-01-15T12:13:07.872Z,7.90
2019-01-15T12:16:06.810Z,7.80
2019-01-15T12:18:57.527Z,7.80
2019-01-15T12:21:43.978Z,7.80
2019-01-15T12:24:39.781Z,7.80
2019-01-15T12:27:19.580Z,7.70
2019-01-15T12:30:09.487Z,7.70
2019-01-15T12:33:02.972Z,7.60
2019-01-15T12:36:08.019Z,7.60
2019-01-15T12:39:03.507Z,7.60
2019-01-15T12:41:53.134Z,7.50
2019-01-15T12:44:41.797Z,7.50
2019-01-15T12:47:34.106Z,7.60
2019-01-15T12:50:23.278Z,7.50
2019-01-15T12:53:18.600Z,7.50
2019-01-15T12:56:03.823Z,7.50
2019-01-15T12:58:54.513Z,7.50
2019-01-15T13:01:44.171Z,7.50
2019-01-15T13:04:32.815Z,7.50
2019-01-15T13:07:21.293Z,7.50
2019-01-15T13:10:09.509Z,7.50
2019-01-15T13:13:01.679Z,7.50
2019-01-15T13:15:42.477Z,7.60
2019-01-15T13:18:34.857Z,7.70
2019-01-15T13:21:27.195Z,7.80
2019-01-15T13:24:32.063Z,7.80
2019-01-15T13:27:22.307Z,7.80
2019-01-15T13:30:18.062Z,7.70
2019-01-15T13:32:58.597Z,7.60
2019-01-15T13:36:00.682Z,7.60
2019-01-15T13:38:56.571Z,7.60
2019-01-15T13:41:50.732Z,7.60
2019-01-15T13:44:39.349Z,7.60
2019-01-15T13:47:41.514Z,7.50
2019-01-15T13:50:49.063Z,7.50
2019-01-15T13:53:44.767Z,7.40
2019-01-15T13:56:31.402Z,7.40
2019-01-15T13:59:36.514Z,7.50
2019-01-15T14:02:35.457Z,7.50
2019-01-15T14:05:23.470Z,7.60
2019-01-15T14:08:11.295Z,7.80
2019-01-15T14:11:06.980Z,7.80
2019-01-15T14:13:52.251Z,7.80
2019-01-15T14:16:44.018Z,7.70
2019-01-15T14:19:35.587Z,7.70
2019-01-15T14:22:24.997Z,7.80
2019-01-15T14:25:12.648Z,7.80
2019-01-15T14:28:01.164Z,7.70
2019-01-15T14:31:02.423Z,7.70
2019-01-15T14:33:44.578Z,7.60
2019-01-15T14:36:33.030Z,7.60
2019-01-15T14:39:36.340Z,7.60
2019-01-15T14:42:24.362Z,7.60
2019-01-15T14:45:16.762Z,7.60
2019-01-15T14:48:04.952Z,7.50
2019-01-15T14:50:44.615Z,7.50
2019-01-15T14:53:46.645Z,7.50
2019-01-15T14:56:32.544Z,7.50
2019-01-15T14:59:21.270Z,7.50
2019-01-15T15:02:20.461Z,7.40
2019-01-15T15:05:06.576Z,7.40
2019-01-15T15:07:54.182Z,7.40
2019-01-15T15:10:49.214Z,7.30
2019-01-15T15:13:41.863Z,7.30
2019-01-15T15:16:29.584Z,7.30
2019-01-15T15:19:16.123Z,7.30
2019-01-15T15:22:12.089Z,7.30
2019-01-15T15:25:04.496Z,7.40
2019-01-15T15:28:05.961Z,7.40
2019-01-15T15:31:01.961Z,7.40
2019-01-15T15:33:49.206Z,7.30
2019-01-15T15:36:37.583Z,7.30
2019-01-15T15:39:37.157Z,7.30
2019-01-15T15:42:29.959Z,7.30
2019-01-15T15:45:17.090Z,7.20
2019-01-15T15:48:12.538Z,7.20
2019-01-15T15:51:01.608Z,7.20
2019-01-15T15:53:42.832Z,7.20
2019-01-15T15:56:30.812Z,7.10
2019-01-15T15:59:32.015Z,7.10
2019-01-15T16:02:20.439Z,7.00
2019-01-15T16:05:08.428Z,7.00
2019-01-15T16:07:49.504Z,7.00
2019-01-15T16:10:35.321Z,7.00
2019-01-15T16:13:39.578Z,7.00
2019-01-15T16:16:27.633Z,6.90
2019-01-15T16:19:17.725Z,6.90
2019-01-15T16:22:12.951Z,6.90
2019-01-15T16:25:00.999Z,6.90
2019-01-15T16:27:43.821Z,6.90
2019-01-15T16:30:25.723Z,6.90
2019-01-15T16:33:27.659Z,6.90
2019-01-15T16:36:24.831Z,6.90
2019-01-15T16:39:12.914Z,6.90
2019-01-15T16:42:08.085Z,6.90
2019-01-15T16:45:15.718Z,6.90
2019-01-15T16:47:58.591Z,6.90
2019-01-15T16:50:53.747Z,6.90
2019-01-15T16:53:43.079Z,6.90
2019-01-15T16:56:41.927Z,6.90
2019-01-15T16:59:47.074Z,6.90
2019-01-15T17:02:51.578Z,6.90
2019-01-15T17:05:44.391Z,6.90
2019-01-15T17:08:42.895Z,6.80
2019-01-15T17:11:30.279Z,6.80
2019-01-15T17:14:19.295Z,6.80
2019-01-15T17:17:07.105Z,6.80
2019-01-15T17:19:55.257Z,6.80
2019-01-15T17:22:36.783Z,6.80
2019-01-15T17:25:22.495Z,6.80
2019-01-15T17:28:21.031Z,6.80
2019-01-15T17:31:02.233Z,6.80
2019-01-15T17:33:54.579Z,6.80
2019-01-15T17:36:41.559Z,6.80
2019-01-15T17:39:46.369Z,6.80
2019-01-15T17:42:34.698Z,6.80
2019-01-15T17:45:34.399Z,6.80
2019-01-15T17:48:22.561Z,6.80
2019-01-15T17:51:11.353Z,6.80
2019-01-15T17:53:59.591Z,6.80
2019-01-15T17:57:01.443Z,6.80
2019-01-15T18:00:17.605Z,6.80
2019-01-15T18:03:16.345Z,6.70
2019-01-15T18:05:57.290Z,6.70
2019-01-15T18:08:45.597Z,6.80
2019-01-15T18:11:40.851Z,6.80
2019-01-15T18:14:29.889Z,6.80
2019-01-15T18:17:10.294Z,6.80
2019-01-15T18:19:52.097Z,6.80
2019-01-15T18:22:56.567Z,6.80
2019-01-15T18:25:48.080Z,6.80
2019-01-15T18:28:37.695Z,6.80
2019-01-15T18:31:27.365Z,6.80
2019-01-15T18:34:10.404Z,6.80
2019-01-15T18:37:03.136Z,6.70
2019-01-15T18:39:52.473Z,6.70
2019-01-15T18:42:46.357Z,6.70
2019-01-15T18:45:26.368Z,6.70
2019-01-15T18:48:21.757Z,6.70
2019-01-15T18:51:17.813Z,6.70
2019-01-15T18:54:01.287Z,6.70
2019-01-15T18:56:49.577Z,6.70
2019-01-15T18:59:39.535Z,6.70
2019-01-15T19:02:35.198Z,6.70
2019-01-15T19:05:23.792Z,6.70
2019-01-15T19:08:32.366Z,6.70
2019-01-15T19:11:22.304Z,6.70
2019-01-15T19:14:17.522Z,6.70
2019-01-15T19:17:22.409Z,6.70
2019-01-15T19:20:12.302Z,6.60
2019-01-15T19:23:04.336Z,6.60
2019-01-15T19:25:59.777Z,6.60
2019-01-15T19:28:48.276Z,6.60
2019-01-15T19:31:47.266Z,6.60
2019-01-15T19:34:37.113Z,6.70
2019-01-15T19:37:25.383Z,6.60
2019-01-15T19:40:15.016Z,6.70
2019-01-15T19:43:03.293Z,6.70
2019-01-15T19:45:51.594Z,6.70
2019-01-15T19:48:44.014Z,6.70
2019-01-15T19:51:32.240Z,6.70
2019-01-15T19:54:27.661Z,6.70
2019-01-15T19:57:23.597Z,6.70
2019-01-15T20:00:15.674Z,6.80
2019-01-15T20:03:20.523Z,6.80
2019-01-15T20:06:10.272Z,6.80
2019-01-15T20:09:01.956Z,6.80
2019-01-15T20:11:51.258Z,6.80
2019-01-15T20:14:34.590Z,6.80
2019-01-15T20:17:22.896Z,6.80
2019-01-15T20:20:18.505Z,6.80
2019-01-15T20:23:13.987Z,6.70
2019-01-15T20:26:12.801Z,6.70
2019-01-15T20:29:04.812Z,6.70
2019-01-15T20:31:57.226Z,6.70
2019-01-15T20:34:45.487Z,6.60
2019-01-15T20:37:42.778Z,6.60
2019-01-15T20:40:24.114Z,6.60
2019-01-15T20:43:06.451Z,6.60
2019-01-15T20:45:58.007Z,6.60
2019-01-15T20:48:42.506Z,6.60
2019-01-15T20:51:25.448Z,6.60
2019-01-15T20:54:05.057Z,6.60
2019-01-15T20:56:57.648Z,6.60
2019-01-15T20:59:50.273Z,6.60
2019-01-15T21:02:41.414Z,6.70
2019-01-15T21:05:35.874Z,6.70
2019-01-15T21:08:26.666Z,6.70
2019-01-15T21:11:10.955Z,6.60
2019-01-15T21:14:18.475Z,6.60
2019-01-15T21:17:06.261Z,6.70
2019-01-15T21:19:54.665Z,6.70
2019-01-15T21:22:44.381Z,6.70
2019-01-15T21:25:45.703Z,6.70
2019-01-15T21:28:31.463Z,6.70
2019-01-15T21:31:21.759Z,6.70
2019-01-15T21:34:16.937Z,6.70
2019-01-15T21:37:12.753Z,6.70
2019-01-15T21:40:08.049Z,6.70
2019-01-15T21:43:24.177Z,6.70
2019-01-15T21:46:12.603Z,6.60
2019-01-15T21:49:00.849Z,6.60
2019-01-15T21:51:48.585Z,6.60
2019-01-15T21:54:39.821Z,6.60
2019-01-15T21:57:28.480Z,6.60
2019-01-15T22:00:06.853Z,6.60
2019-01-15T22:02:56.365Z,6.60
2019-01-15T22:05:36.483Z,6.60
2019-01-15T22:08:28.871Z,6.60
2019-01-15T22:11:21.579Z,6.60
2019-01-15T22:14:18.209Z,6.60
2019-01-15T22:17:16.933Z,6.60
2019-01-15T22:20:09.567Z,6.60
2019-01-15T22:22:58.263Z,6.60
2019-01-15T22:25:49.505Z,6.60
2019-01-15T22:28:35.803Z,6.60
2019-01-15T22:31:37.699Z,6.60
2019-01-15T22:34:27.783Z,6.60
2019-01-15T22:37:17.894Z,6.50
2019-01-15T22:40:07.766Z,6.50
2019-01-15T22:42:55.835Z,6.50
2019-01-15T22:45:51.532Z,6.50
2019-01-15T22:48:46.953Z,6.50
2019-01-15T22:51:45.226Z,6.50
2019-01-15T22:54:40.840Z,6.50
2019-01-15T22:57:29.039Z,6.50
2019-01-15T23:00:16.775Z,6.40
2019-01-15T23:03:13.496Z,6.40
2019-01-15T23:06:03.526Z,6.40
2019-01-15T23:08:45.768Z,6.30
2019-01-15T23:11:33.806Z,6.40
2019-01-15T23:14:34.332Z,6.40
2019-01-15T23:17:27.153Z,6.40
2019-01-15T23:20:26.636Z,6.40
2019-01-15T23:23:31.132Z,6.40
2019-01-15T23:26:32.964Z,6.30
2019-01-15T23:29:21.361Z,6.30
2019-01-15T23:32:16.548Z,6.30
2019-01-15T23:35:09.300Z,6.30
2019-01-15T23:37:57.661Z,6.30
2019-01-15T23:40:45.858Z,6.30
2019-01-15T23:43:33.259Z,6.30
2019-01-15T23:46:21.342Z,6.30
2019-01-15T23:49:09.630Z,6.40
2019-01-15T23:51:49.884Z,6.30
2019-01-15T23:54:33.694Z,6.30
2019-01-15T23:57:21.994Z,6.30
